Pagrindinis puslapis
METAR-TAF:

METAR-TAF

Oro uostai :

Tamperės oro uostas

Tamperė, Suomija

platuma: 61-25N, ilguma: 023-35E, Aukštis: 112 m

Dabartinis oras

Ataskaita buvo paskelbta 43 minutes, ne 19:50 UTC
Ramus vėjas
Temperatūra 9°C
Drėgmė 57%
Slėgis 1013 hPa
Matomumas 10 km arba daugiau
nėra debesų žemiau 1500 m ir nėra kamuolinių lietaus debesų

METAR: EFTP 221950Z AUTO 00000KT CAVOK 09/01 Q1013

Laikas: 23:33 (20:33 UTC)

Prognozė

Ataskaita buvo paskelbta 2 valandos ir 58 minutes, ne 17:35 UTC
Prognozė galioja nuo 22 metu 18 UTC su 23 metu 18 UTC
Vėjas 4 kt iš Vakarų
Matomumas 10 km arba daugiau
nėra debesų žemiau 1500 m ir nėra kamuolinių lietaus debesų

TAF: EFTP 221735Z 2218/2318 27004KT CAVOK

Orai ataskaitas ir orų prognozės (METAR, TAF).

turimą stotys yra geltonos ir raudonos taškus žemėlapyje.

Perkelti pele per norėdami pamatyti stoties vardą.

Tada spustelėkite, norėdami matyti oro stebėjimo ir prognozės.

Norėdami pakeisti žemėlapį: spustelėkite ant žalios mygtukų su juodo kryžiaus žemyn,; žalią mygtuką su brūkšneliu, jei norite nutolinti; arba žalių rodyklių gretimoms žemėlapius.


METAR-TAF: